< < Back
Terminal Aerodrome Forecast


Current Version              Previous Versions:   1  2  3  4  5  6  7  8  9  

Terminal Aerodrome Forecast

173
FTUS42 KTAE 232322
TAFDHN
TAF
KDHN 232322Z 2400/2424 14006KT P6SM SCT250
     FM241800 17007KT P6SM VCTS SCT040CB SCT250=

Latest METAR

398
SAUS70 KWBC 250200 RRC
MTRDHN
METAR KDHN 250153Z AUTO 23007KT 10SM CLR 28/23 A3006 RMK AO2 SLP171
T02780233


USA.gov is the U.S. government's official web portal to all federal, state and local government web resources and services.